Time;durP1;ratioP1;P1;durP2;ratioP2;P2;SDS_P1;SDS_P2;PMS_P1;PMS_P2;Temp;Humidity;BMP_temperature;BMP_pressure;BME280_temperature;BME280_humidity;BME280_pressure;Samples;Min_cycle;Max_cycle;Signal;HPM_P1;HPM_P2
2021/05/24 00:00:13;;;;;;;13.52;6.57;;;;;;;16.69;55.09;99770.77;358723;147;858935;-61
2021/05/24 00:01:15;;;;;;;14.14;6.18;;;;;;;16.68;55.00;99769.05;352516;148;859166;-61
2021/05/24 00:02:18;;;;;;;10.80;5.81;;;;;;;16.65;55.60;99759.58;359146;150;857366;-61
2021/05/24 00:03:19;;;;;;;11.49;6.10;;;;;;;16.65;56.04;99758.71;359356;148;857410;-61
2021/05/24 00:04:21;;;;;;;16.61;6.59;;;;;;;16.66;55.88;99768.26;356949;147;857288;-62
2021/05/24 00:05:26;;;;;;;13.47;5.75;;;;;;;16.66;55.83;99765.64;361088;147;857259;-62
2021/05/24 00:06:30;;;;;;;10.69;6.25;;;;;;;16.66;55.83;99765.64;358672;149;865536;-61
2021/05/24 00:07:32;;;;;;;13.44;6.23;;;;;;;16.60;55.58;99758.89;360826;148;857901;-62
2021/05/24 00:08:33;;;;;;;15.72;6.19;;;;;;;16.57;55.65;99776.43;358057;148;858591;-61
2021/05/24 00:09:35;;;;;;;12.20;6.20;;;;;;;16.50;55.67;99774.03;354407;148;858427;-61
2021/05/24 00:10:39;;;;;;;10.57;5.48;;;;;;;16.46;56.25;99780.28;354426;148;857319;-61
2021/05/24 00:11:41;;;;;;;11.33;5.86;;;;;;;16.46;56.25;99780.28;358311;148;857296;-61
2021/05/24 00:12:47;;;;;;;11.33;6.06;;;;;;;16.40;55.48;99782.23;359808;148;857305;-61
2021/05/24 00:13:55;;;;;;;10.38;5.88;;;;;;;16.35;56.16;99780.64;345295;153;857507;-61
2021/05/24 00:14:51;;;;;;;10.28;5.90;;;;;;;16.32;56.38;99791.20;351735;152;858795;-61
2021/05/24 00:15:55;;;;;;;13.11;6.05;;;;;;;16.30;56.37;99795.63;360266;148;866878;-61
2021/05/24 00:16:57;;;;;;;12.01;5.88;;;;;;;16.28;56.68;99794.81;357971;147;864963;-61
2021/05/24 00:17:59;;;;;;;11.69;5.63;;;;;;;16.27;55.89;99811.40;358868;149;857241;-61
2021/05/24 00:19:01;;;;;;;13.42;5.51;;;;;;;16.25;55.43;99809.77;359542;148;857312;-61
2021/05/24 00:20:05;;;;;;;11.91;5.76;;;;;;;16.24;54.75;99808.89;362342;147;858264;-62
2021/05/24 00:21:07;;;;;;;12.61;6.46;;;;;;;16.24;53.89;99813.28;365688;147;858946;-62
2021/05/24 00:22:09;;;;;;;12.16;6.11;;;;;;;16.27;53.21;99823.63;359062;147;857427;-61
2021/05/24 00:23:11;;;;;;;13.86;6.27;;;;;;;16.27;53.21;99823.63;357014;148;857334;-61
2021/05/24 00:24:13;;;;;;;16.55;5.73;;;;;;;16.29;53.39;99833.10;358931;147;857322;-62
2021/05/24 00:25:14;;;;;;;13.09;5.58;;;;;;;16.30;51.64;99836.58;359530;147;858672;-61
2021/05/24 00:26:17;;;;;;;12.00;5.83;;;;;;;16.30;50.18;99842.64;359606;149;857284;-62
2021/05/24 00:27:18;;;;;;;12.08;5.75;;;;;;;;;;357478;148;857282;-62
2021/05/24 00:28:20;;;;;;;12.44;5.01;;;;;;;;;;357752;147;866734;-62
2021/05/24 00:29:22;;;;;;;12.89;5.36;;;;;;;;;;359196;149;867892;-61
2021/05/24 00:30:26;;;;;;;18.43;5.91;;;;;;;;;;359388;147;865799;-61
2021/05/24 00:31:28;;;;;;;9.49;5.49;;;;;;;;;;353986;152;857407;-62
2021/05/24 00:32:30;;;;;;;13.89;5.27;;;;;;;;;;350777;151;865791;-62
2021/05/24 00:33:31;;;;;;;16.46;5.99;;;;;;;;;;358734;148;857366;-62
2021/05/24 00:34:33;;;;;;;15.72;6.47;;;;;;;;;;358998;148;857319;-63
2021/05/24 00:35:35;;;;;;;14.87;5.41;;;;;;;;;;360078;148;859358;-64
2021/05/24 00:36:37;;;;;;;11.09;5.45;;;;;;;;;;357138;148;859132;-63
2021/05/24 00:37:38;;;;;;;19.55;6.39;;;;;;;;;;355468;150;858084;-63
2021/05/24 00:38:40;;;;;;;10.09;5.46;;;;;;;;;;357859;148;859986;-63
2021/05/24 00:39:41;;;;;;;9.61;5.43;;;;;;;;;;356538;148;858283;-64
2021/05/24 00:40:43;;;;;;;9.75;5.39;;;;;;;;;;357376;151;857520;-64
2021/05/24 00:41:45;;;;;;;13.17;5.41;;;;;;;;;;357623;148;857364;-63
2021/05/24 00:42:46;;;;;;;9.15;5.14;;;;;;;;;;358846;148;865167;-64
2021/05/24 00:43:48;;;;;;;18.05;5.63;;;;;;;;;;357610;149;865352;-63
2021/05/24 00:44:50;;;;;;;8.79;4.74;;;;;;;;;;356681;148;857407;-63
2021/05/24 00:45:52;;;;;;;9.79;4.60;;;;;;;;;;353565;151;866925;-63
2021/05/24 00:46:53;;;;;;;9.99;5.10;;;;;;;;;;348268;153;859299;-64
2021/05/24 00:47:55;;;;;;;11.48;4.80;;;;;;;;;;345148;156;867033;-62
2021/05/24 00:48:57;;;;;;;11.61;5.06;;;;;;;;;;347193;154;858948;-62
2021/05/24 00:49:59;;;;;;;8.70;4.67;;;;;;;;;;349114;151;857238;-64
2021/05/24 00:51:01;;;;;;;10.30;4.64;;;;;;;;;;348704;154;866809;-62
2021/05/24 00:52:03;;;;;;;11.58;5.64;;;;;;;;;;351901;151;857222;-62
2021/05/24 00:53:04;;;;;;;12.53;4.95;;;;;;;;;;348292;151;865035;-62
2021/05/24 00:54:06;;;;;;;15.83;4.93;;;;;;;;;;344892;156;858722;-63
2021/05/24 00:55:08;;;;;;;9.84;4.99;;;;;;;;;;341453;154;865294;-62
2021/05/24 00:56:10;;;;;;;9.43;5.25;;;;;;;;;;341618;156;857408;-62
2021/05/24 00:57:12;;;;;;;9.18;4.39;;;;;;;;;;342501;157;858318;-62
2021/05/24 00:58:13;;;;;;;9.67;5.23;;;;;;;;;;344332;154;865169;-62
2021/05/24 00:59:15;;;;;;;6.59;4.45;;;;;;;;;;346331;154;857790;-61
2021/05/24 01:00:27;;;;;;;9.34;4.24;;;;;;;;;;349449;153;857317;-63
2021/05/24 01:01:30;;;;;;;14.28;5.87;;;;;;;;;;348549;151;866791;-62
2021/05/24 01:02:32;;;;;;;10.51;4.36;;;;;;;;;;348773;151;857227;-62
2021/05/24 01:03:33;;;;;;;11.74;4.05;;;;;;;;;;341451;154;857504;-62
2021/05/24 01:04:35;;;;;;;7.31;3.24;;;;;;;;;;349871;154;865396;-63
2021/05/24 01:05:38;;;;;;;6.13;3.25;;;;;;;;;;342885;156;864948;-62
2021/05/24 01:06:42;;;;;;;10.62;3.72;;;;;;;;;;347211;152;858195;-63
2021/05/24 01:07:44;;;;;;;8.79;3.72;;;;;;;;;;347169;155;857881;-62
2021/05/24 01:08:45;;;;;;;7.85;3.59;;;;;;;;;;344511;153;858497;-62
2021/05/24 01:09:47;;;;;;;9.71;3.53;;;;;;;;;;343617;154;859324;-62
2021/05/24 01:10:49;;;;;;;8.05;3.36;;;;;;;;;;347140;154;865270;-62
2021/05/24 01:11:51;;;;;;;6.35;3.18;;;;;;;;;;347816;151;859100;-62
2021/05/24 01:12:53;;;;;;;6.56;3.54;;;;;;;;;;343748;154;858874;-62
2021/05/24 01:13:54;;;;;;;6.90;3.39;;;;;;;;;;342630;153;865546;-62
2021/05/24 01:14:56;;;;;;;6.80;3.44;;;;;;;;;;343170;154;857746;-62
2021/05/24 01:15:58;;;;;;;6.13;3.25;;;;;;;;;;345355;154;859429;-62
2021/05/24 01:17:00;;;;;;;4.91;3.11;;;;;;;;;;349233;152;858392;-62
2021/05/24 01:18:02;;;;;;;7.07;3.39;;;;;;;;;;348107;151;857758;-62
2021/05/24 01:19:04;;;;;;;6.34;3.17;;;;;;;;;;349027;154;859185;-62
2021/05/24 01:20:06;;;;;;;7.86;3.52;;;;;;;;;;342528;154;864837;-62
2021/05/24 01:21:12;;;;;;;7.59;3.54;;;;;;;;;;351297;148;858930;-62
2021/05/24 01:22:20;;;;;;;7.46;4.10;;;;;;;;;;360907;148;857867;-63
2021/05/24 01:23:26;;;;;;;10.22;4.32;;;;;;;;;;354767;148;857302;-62
2021/05/24 01:24:24;;;;;;;8.64;4.17;;;;;;;;;;357123;148;857296;-62
2021/05/24 01:25:26;;;;;;;9.06;3.97;;;;;;;;;;356040;148;857429;-63
2021/05/24 01:26:28;;;;;;;9.83;3.97;;;;;;;;;;357220;151;859943;-62
2021/05/24 01:27:29;;;;;;;10.01;3.91;;;;;;;;;;360222;148;859849;-62
2021/05/24 01:28:31;;;;;;;9.99;4.39;;;;;;;;;;355797;148;866671;-62
2021/05/24 01:29:33;;;;;;;10.27;4.17;;;;;;;;;;352408;151;866455;-62
2021/05/24 01:30:35;;;;;;;9.36;3.84;;;;;;;;;;351758;149;861845;-62
2021/05/24 01:31:37;;;;;;;7.02;4.16;;;;;;;;;;355945;148;857270;-62
2021/05/24 01:32:39;;;;;;;8.41;3.84;;;;;;;;;;355375;148;857336;-62
2021/05/24 01:33:41;;;;;;;9.05;4.18;;;;;;;;;;357724;148;857136;-62
2021/05/24 01:34:43;;;;;;;7.66;3.95;;;;;;;;;;359190;148;859612;-62
2021/05/24 01:35:44;;;;;;;9.20;4.22;;;;;;;;;;357447;150;865089;-62
2021/05/24 01:36:47;;;;;;;11.22;4.11;;;;;;;;;;357794;148;864946;-62
2021/05/24 01:37:48;;;;;;;6.77;3.89;;;;;;;;;;361106;148;858913;-62
2021/05/24 01:38:50;;;;;;;12.22;4.11;;;;;;;;;;360991;148;858283;-62
2021/05/24 01:39:52;;;;;;;6.94;3.62;;;;;;;;;;358763;148;858830;-63
2021/05/24 01:40:53;;;;;;;8.52;3.76;;;;;;;;;;359483;149;858430;-63
2021/05/24 01:41:55;;;;;;;6.71;3.96;;;;;;;;;;360892;147;864840;-62
2021/05/24 01:42:58;;;;;;;5.94;3.46;;;;;;;;;;359230;147;857249;-63
2021/05/24 01:43:59;;;;;;;5.73;3.37;;;;;;;;;;358485;150;857377;-62
2021/05/24 01:45:01;;;;;;;8.76;3.77;;;;;;;;;;359652;147;857355;-62
2021/05/24 01:46:03;;;;;;;7.46;4.38;;;;;;;;;;355085;149;857332;-62
2021/05/24 01:47:04;;;;;;;7.87;3.41;;;;;;;;;;350624;153;867052;-62
2021/05/24 01:48:06;;;;;;;7.53;3.53;;;;;;;;;;359447;147;866653;-62
2021/05/24 01:49:09;;;;;;;8.50;3.45;;;;;;;;;;361771;148;866381;-62
2021/05/24 01:50:12;;;;;;;6.42;3.99;;;;;;;;;;360615;148;857797;-62
2021/05/24 01:51:13;;;;;;;9.27;3.61;;;;;;;;;;360016;147;861897;-62
2021/05/24 01:52:15;;;;;;;6.84;3.46;;;;;;;;;;359371;150;858656;-63
2021/05/24 01:53:17;;;;;;;8.22;3.46;;;;;;;;;;358624;147;857278;-62
2021/05/24 01:54:19;;;;;;;6.37;3.80;;;;;;;;;;357927;150;858688;-62
2021/05/24 01:55:21;;;;;;;8.71;3.77;;;;;;;;;;358162;148;857208;-63
2021/05/24 01:56:24;;;;;;;7.33;3.58;;;;;;;;;;358260;147;857282;-62
2021/05/24 01:57:26;;;;;;;10.41;3.49;;;;;;;;;;357927;149;857910;-63
2021/05/24 01:58:28;;;;;;;7.16;3.31;;;;;;;;;;357491;148;857343;-63
2021/05/24 01:59:29;;;;;;;7.82;3.59;;;;;;;;;;358827;148;859106;-63
2021/05/24 02:00:32;;;;;;;5.16;3.12;;;;;;;;;;358496;148;858357;-63
2021/05/24 02:01:33;;;;;;;7.22;2.74;;;;;;;;;;357842;147;858320;-63
2021/05/24 02:02:37;;;;;;;6.16;3.34;;;;;;;;;;361371;148;866316;-63
2021/05/24 02:03:39;;;;;;;8.25;3.33;;;;;;;;;;358399;149;860048;-63
2021/05/24 02:04:40;;;;;;;6.74;3.59;;;;;;;;;;358376;148;857846;-63
2021/05/24 02:05:42;;;;;;;8.40;3.80;;;;;;;;;;359034;150;859765;-63
2021/05/24 02:06:44;;;;;;;5.77;3.47;;;;;;;;;;357400;148;859417;-62
2021/05/24 02:07:46;;;;;;;5.05;3.53;;;;;;;;;;358068;150;859235;-63
2021/05/24 02:08:48;;;;;;;7.27;3.37;;;;;;;;;;360131;147;857386;-63
2021/05/24 02:09:49;;;;;;;8.31;3.28;;;;;;;;;;359534;147;859059;-62
2021/05/24 02:10:51;;;;;;;5.04;3.26;;;;;;;;;;358567;149;857476;-62
2021/05/24 02:11:53;;;;;;;7.62;3.49;;;;;;;;;;358356;148;865427;-62
2021/05/24 02:12:55;;;;;;;7.17;3.52;;;;;;;;;;359567;147;857208;-62
2021/05/24 02:13:57;;;;;;;6.92;3.62;;;;;;;;;;358866;148;857380;-62
2021/05/24 02:14:58;;;;;;;7.56;3.76;;;;;;;;;;357798;148;864792;-62
2021/05/24 02:16:00;;;;;;;5.81;3.59;;;;;;;;;;359069;147;864885;-62
2021/05/24 02:17:02;;;;;;;7.36;3.91;;;;;;;;;;358551;148;859995;-62
2021/05/24 02:18:04;;;;;;;7.84;3.90;;;;;;;;;;357446;147;860067;-62
2021/05/24 02:19:09;;;;;;;8.13;4.26;;;;;;;;;;358004;149;857935;-62
2021/05/24 02:20:16;;;;;;;10.09;4.40;;;;;;;;;;358051;148;859505;-62
2021/05/24 02:21:16;;;;;;;10.32;4.24;;;;;;;;;;358772;148;857272;-62
2021/05/24 02:22:18;;;;;;;7.79;3.84;;;;;;;;;;362078;148;860366;-63
2021/05/24 02:23:19;;;;;;;7.32;4.20;;;;;;;;;;358151;148;857527;-62
2021/05/24 02:24:21;;;;;;;7.04;4.89;;;;;;;;;;358064;147;864787;-62
2021/05/24 02:25:23;;;;;;;9.31;4.26;;;;;;;;;;358683;149;865853;-62
2021/05/24 02:26:25;;;;;;;7.18;4.21;;;;;;;;;;358519;148;860430;-62
2021/05/24 02:27:27;;;;;;;9.49;4.21;;;;;;;;;;358861;148;858875;-62
2021/05/24 02:28:29;;;;;;;9.54;4.25;;;;;;;;;;359494;148;857380;-63
2021/05/24 02:29:30;;;;;;;8.24;4.47;;;;;;;;;;358388;148;865723;-62
2021/05/24 02:30:34;;;;;;;7.76;4.37;;;;;;;;;;359092;147;858658;-63
2021/05/24 02:31:35;;;;;;;8.74;4.14;;;;;;;;;;356793;148;857221;-63
2021/05/24 02:32:37;;;;;;;9.39;4.31;;;;;;;;;;359519;148;857310;-63
2021/05/24 02:33:39;;;;;;;7.52;3.96;;;;;;;;;;361635;147;857371;-63
2021/05/24 02:34:40;;;;;;;9.86;4.03;;;;;;;;;;357798;147;857355;-63
2021/05/24 02:35:43;;;;;;;10.29;4.05;;;;;;;;;;358868;148;857227;-62
2021/05/24 02:36:45;;;;;;;6.92;4.12;;;;;;;;;;359010;147;857420;-62
2021/05/24 02:37:47;;;;;;;5.89;4.00;;;;;;;;;;356717;147;857517;-63
2021/05/24 02:38:48;;;;;;;7.14;4.02;;;;;;;;;;359040;147;859234;-63
2021/05/24 02:39:51;;;;;;;6.85;4.02;;;;;;;;;;358705;147;864645;-63
2021/05/24 02:40:52;;;;;;;6.39;4.22;;;;;;;;;;361410;148;858095;-62
2021/05/24 02:41:54;;;;;;;6.69;3.79;;;;;;;;;;357270;147;857273;-65
2021/05/24 02:42:56;;;;;;;9.70;3.85;;;;;;;;;;358990;147;859019;-63
2021/05/24 02:43:58;;;;;;;7.63;4.33;;;;;;;;;;357609;147;860565;-62
2021/05/24 02:45:00;;;;;;;10.79;4.14;;;;;;;;;;361077;147;857305;-62
2021/05/24 02:46:01;;;;;;;9.15;4.40;;;;;;;;;;358259;147;857303;-63
2021/05/24 02:47:03;;;;;;;9.71;4.15;;;;;;;;;;353989;149;865703;-62
2021/05/24 02:48:05;;;;;;;9.15;4.45;;;;;;;;;;355279;147;857421;-63
2021/05/24 02:49:07;;;;;;;7.71;4.06;;;;;;;;;;357953;147;858653;-63
2021/05/24 02:50:12;;;;;;;8.88;4.00;;;;;;;;;;359035;148;858896;-62
2021/05/24 02:51:13;;;;;;;9.33;4.15;;;;;;;;;;357852;147;860512;-62
2021/05/24 02:52:15;;;;;;;10.29;4.49;;;;;;;;;;357367;148;867099;-62
2021/05/24 02:53:17;;;;;;;9.56;3.82;;;;;;;;;;358689;149;856495;-62
2021/05/24 02:54:18;;;;;;;13.20;4.40;;;;;;;;;;359869;147;856232;-63
2021/05/24 02:55:20;;;;;;;6.70;4.17;;;;;;;;;;359966;148;863784;-62
2021/05/24 02:56:22;;;;;;;9.15;4.09;;;;;;;;;;363791;147;856152;-62
2021/05/24 02:57:24;;;;;;;7.65;4.50;;;;;;;;;;359894;147;856316;-63
2021/05/24 02:58:25;;;;;;;6.29;3.90;;;;;;;;;;358785;149;861428;-63
2021/05/24 02:59:27;;;;;;;6.64;3.99;;;;;;;;;;361410;147;856362;-63
2021/05/24 03:00:29;;;;;;;9.10;4.75;;;;;;;;;;358310;147;864457;-63
2021/05/24 03:01:32;;;;;;;9.19;4.59;;;;;;;;;;359470;150;856393;-63
2021/05/24 03:02:34;;;;;;;11.31;4.30;;;;;;;;;;357509;147;864014;-63
2021/05/24 03:03:36;;;;;;;7.13;4.33;;;;;;;;;;352166;150;856207;-63
2021/05/24 03:04:38;;;;;;;7.65;4.10;;;;;;;;;;358736;147;856681;-63
2021/05/24 03:05:40;;;;;;;8.82;3.79;;;;;;;;;;360549;147;863849;-63
2021/05/24 03:06:41;;;;;;;10.49;4.14;;;;;;;;;;351489;152;856217;-63
2021/05/24 03:07:43;;;;;;;8.77;4.19;;;;;;;;;;351952;150;857203;-63
2021/05/24 03:08:45;;;;;;;7.29;3.54;;;;;;;;;;357982;148;863966;-63
2021/05/24 03:09:47;;;;;;;6.63;3.73;;;;;;;;;;356840;147;856700;-63
2021/05/24 03:10:49;;;;;;;9.55;4.67;;;;;;;;;;358924;148;856691;-63
2021/05/24 03:13:34;;;;;;;6.45;3.50;;;;;;;14.68;65.34;99960.30;375472;142;881468;-61
2021/05/24 03:14:36;;;;;;;7.69;3.82;;;;;;;14.56;65.33;99972.74;362851;145;857762;-59
2021/05/24 03:15:38;;;;;;;8.49;3.42;;;;;;;14.57;65.54;99969.24;364927;145;864865;-61
2021/05/24 03:16:40;;;;;;;6.44;3.49;;;;;;;14.57;65.18;99973.58;360072;146;864836;-61
2021/05/24 03:17:42;;;;;;;8.25;3.45;;;;;;;14.57;65.29;99979.66;364135;144;858970;-61
2021/05/24 03:18:44;;;;;;;6.93;3.36;;;;;;;14.54;65.11;99978.87;363056;147;859640;-65
2021/05/24 03:19:46;;;;;;;7.44;3.98;;;;;;;14.51;65.28;99981.55;363780;145;867102;-61
2021/05/24 03:20:48;;;;;;;7.12;3.54;;;;;;;14.51;65.42;99985.02;363540;147;866550;-60
2021/05/24 03:21:49;;;;;;;8.21;3.23;;;;;;;14.50;65.25;99979.83;361021;148;860008;-60
2021/05/24 03:22:51;;;;;;;5.66;3.28;;;;;;;14.41;64.90;99973.95;362999;145;865666;-59
2021/05/24 03:23:53;;;;;;;10.21;3.73;;;;;;;14.34;65.14;99980.19;362736;145;866545;-60
2021/05/24 03:24:55;;;;;;;5.49;3.51;;;;;;;14.22;65.35;99977.87;363176;146;857190;-60
2021/05/24 03:25:57;;;;;;;6.40;4.34;;;;;;;14.21;65.75;99989.18;362225;144;859012;-59
2021/05/24 03:26:59;;;;;;;8.46;4.27;;;;;;;14.16;65.64;99973.64;362317;145;865334;-60
2021/05/24 03:28:00;;;;;;;6.71;4.27;;;;;;;;;;363778;145;858641;-59
2021/05/24 03:29:02;;;;;;;5.57;4.21;;;;;;;;;;363813;144;859081;-60
2021/05/24 03:30:05;;;;;;;5.77;4.07;;;;;;;;;;362610;146;857256;-60
2021/05/24 03:31:06;;;;;;;9.06;4.37;;;;;;;;;;362985;146;857312;-60
2021/05/24 03:32:08;;;;;;;6.34;4.11;;;;;;;;;;361741;145;858853;-61
2021/05/24 03:33:09;;;;;;;7.31;4.43;;;;;;;;;;362647;146;857310;-61
2021/05/24 03:34:11;;;;;;;9.49;4.29;;;;;;;;;;362073;144;857300;-60
2021/05/24 03:35:13;;;;;;;6.51;4.48;;;;;;;;;;362762;146;857346;-60
2021/05/24 03:36:14;;;;;;;8.23;3.89;;;;;;;;;;361643;148;857272;-61
2021/05/24 03:37:16;;;;;;;10.19;4.44;;;;;;;;;;361496;144;857391;-59
2021/05/24 03:38:18;;;;;;;8.67;3.96;;;;;;;;;;364274;146;859245;-61
2021/05/24 03:39:20;;;;;;;5.54;3.80;;;;;;;;;;363289;145;865902;-59
2021/05/24 03:40:23;;;;;;;7.62;4.19;;;;;;;;;;361117;145;858187;-58
2021/05/24 03:41:27;;;;;;;4.89;3.44;;;;;;;;;;361540;146;857932;-60
2021/05/24 03:42:28;;;;;;;5.05;3.70;;;;;;;;;;363215;145;857991;-60
2021/05/24 03:43:30;;;;;;;6.50;3.81;;;;;;;;;;362616;145;864924;-60
2021/05/24 03:44:32;;;;;;;6.58;4.15;;;;;;;;;;362023;146;859394;-61
2021/05/24 03:45:36;;;;;;;4.91;3.70;;;;;;;;;;362206;145;858727;-61
2021/05/24 03:46:39;;;;;;;5.87;3.81;;;;;;;;;;359242;148;864785;-61
2021/05/24 03:47:41;;;;;;;5.88;3.71;;;;;;;;;;359202;147;857748;-61
2021/05/24 03:48:42;;;;;;;5.56;3.49;;;;;;;;;;361295;145;865793;-62
2021/05/24 03:49:47;;;;;;;5.20;3.26;;;;;;;;;;361525;149;858948;-60
2021/05/24 03:50:48;;;;;;;6.33;2.94;;;;;;;;;;362037;145;864931;-61
2021/05/24 03:51:50;;;;;;;5.87;3.06;;;;;;;;;;362568;145;858181;-64
2021/05/24 03:52:52;;;;;;;4.76;3.14;;;;;;;;;;362923;145;863293;-61
2021/05/24 03:53:54;;;;;;;6.92;3.14;;;;;;;;;;361445;145;857429;-62
2021/05/24 03:54:55;;;;;;;4.68;2.86;;;;;;;;;;361440;145;857317;-58
2021/05/24 03:55:57;;;;;;;5.04;2.97;;;;;;;;;;362443;146;857372;-62
2021/05/24 03:56:58;;;;;;;6.32;3.18;;;;;;;;;;363947;144;858889;-60
2021/05/24 03:58:01;;;;;;;5.08;2.84;;;;;;;;;;361548;148;864978;-61
2021/05/24 03:59:03;;;;;;;5.97;2.83;;;;;;;;;;361544;149;865291;-64
2021/05/24 04:00:05;;;;;;;5.55;2.75;;;;;;;;;;361468;145;857703;-63
2021/05/24 04:01:07;;;;;;;6.04;2.90;;;;;;;;;;363856;146;858144;-63
2021/05/24 04:02:08;;;;;;;4.39;2.85;;;;;;;;;;361572;145;860097;-63
2021/05/24 04:03:11;;;;;;;6.62;2.55;;;;;;;;;;363704;145;857305;-65
2021/05/24 04:04:14;;;;;;;4.95;2.73;;;;;;;;;;361533;149;857433;-62
2021/05/24 04:05:38;;;;;;;8.02;3.02;;;;;;;;;;361981;145;857820;-60
2021/05/24 04:06:20;;;;;;;3.89;2.55;;;;;;;;;;360514;148;861601;-60
2021/05/24 04:07:23;;;;;;;9.13;3.05;;;;;;;;;;361611;146;859431;-62
2021/05/24 04:08:25;;;;;;;6.62;2.38;;;;;;;;;;362876;145;863370;-62
2021/05/24 04:09:26;;;;;;;3.86;2.83;;;;;;;;;;361755;146;864783;-59
2021/05/24 04:10:35;;;;;;;5.95;2.76;;;;;;;;;;362194;145;857323;-59
2021/05/24 04:11:35;;;;;;;4.13;2.45;;;;;;;;;;361528;145;858835;-60
2021/05/24 04:12:37;;;;;;;5.52;2.86;;;;;;;;;;363172;144;857801;-57
2021/05/24 04:13:40;;;;;;;6.78;2.31;;;;;;;;;;361696;145;859778;-58
2021/05/24 04:14:42;;;;;;;3.35;2.04;;;;;;;;;;361424;145;865224;-59
2021/05/24 04:15:47;;;;;;;8.65;2.80;;;;;;;;;;364363;144;857344;-61
2021/05/24 04:16:48;;;;;;;3.95;2.09;;;;;;;;;;362096;145;865056;-58
2021/05/24 04:17:51;;;;;;;3.49;2.18;;;;;;;;;;363106;144;866737;-59
2021/05/24 04:18:53;;;;;;;3.71;2.14;;;;;;;;;;361699;146;864979;-60
2021/05/24 04:19:55;;;;;;;2.85;2.08;;;;;;;;;;361623;144;858986;-56
2021/05/24 04:20:57;;;;;;;4.00;1.80;;;;;;;;;;361754;145;858785;-61
2021/05/24 04:21:59;;;;;;;3.47;2.32;;;;;;;;;;363121;146;858900;-58
2021/05/24 04:23:00;;;;;;;5.54;1.86;;;;;;;;;;362028;144;858865;-59
2021/05/24 04:24:03;;;;;;;2.61;1.89;;;;;;;;;;361752;148;859092;-59
2021/05/24 04:25:05;;;;;;;4.59;2.25;;;;;;;;;;362304;146;857424;-59
2021/05/24 04:26:06;;;;;;;3.87;1.95;;;;;;;;;;363167;145;857180;-61
2021/05/24 04:27:08;;;;;;;3.43;1.84;;;;;;;;;;362199;146;857473;-59
2021/05/24 04:28:10;;;;;;;4.14;1.81;;;;;;;;;;362003;146;859049;-60
2021/05/24 04:29:11;;;;;;;4.70;2.51;;;;;;;;;;362468;145;858696;-60
2021/05/24 04:30:14;;;;;;;3.86;2.31;;;;;;;;;;361670;146;864932;-57
2021/05/24 04:31:16;;;;;;;3.21;2.12;;;;;;;;;;362232;145;857702;-56
2021/05/24 04:32:17;;;;;;;5.50;2.31;;;;;;;;;;361547;145;859813;-56
2021/05/24 04:33:19;;;;;;;4.73;2.54;;;;;;;;;;362725;145;859276;-56
2021/05/24 04:34:20;;;;;;;3.38;2.14;;;;;;;;;;362699;145;857386;-60
2021/05/24 04:35:22;;;;;;;5.04;2.26;;;;;;;;;;361806;146;857429;-60
2021/05/24 04:36:25;;;;;;;5.17;2.09;;;;;;;;;;361186;147;857391;-61
2021/05/24 04:37:27;;;;;;;6.41;1.91;;;;;;;;;;362481;144;859043;-58
2021/05/24 04:38:28;;;;;;;5.37;2.18;;;;;;;;;;361786;146;857347;-59
2021/05/24 04:39:30;;;;;;;4.44;2.12;;;;;;;;;;361873;146;859704;-61
2021/05/24 04:40:33;;;;;;;3.41;1.98;;;;;;;;;;361315;145;857430;-60
2021/05/24 04:41:35;;;;;;;4.07;1.95;;;;;;;;;;361873;146;857696;-60
2021/05/24 04:42:37;;;;;;;4.59;2.19;;;;;;;;;;361479;145;859632;-60
2021/05/24 04:43:41;;;;;;;3.85;1.96;;;;;;;;;;361922;146;859110;-59
2021/05/24 04:44:42;;;;;;;4.02;2.14;;;;;;;;;;361785;146;857371;-59
2021/05/24 04:45:44;;;;;;;5.43;2.28;;;;;;;;;;363300;145;857334;-59
2021/05/24 04:46:47;;;;;;;3.77;1.99;;;;;;;;;;362341;146;858556;-59
2021/05/24 04:47:49;;;;;;;3.31;2.08;;;;;;;;;;362781;145;857503;-59
2021/05/24 04:48:50;;;;;;;2.86;2.04;;;;;;;;;;363554;144;857509;-57
2021/05/24 04:49:52;;;;;;;4.19;2.15;;;;;;;;;;361649;145;859158;-56
2021/05/24 04:50:54;;;;;;;5.50;2.29;;;;;;;;;;362000;145;858275;-59
2021/05/24 04:51:55;;;;;;;5.11;2.26;;;;;;;;;;361357;145;867360;-57
2021/05/24 04:52:57;;;;;;;6.34;2.09;;;;;;;;;;361055;146;858711;-58
2021/05/24 04:53:58;;;;;;;2.63;1.80;;;;;;;;;;362376;145;859769;-57
2021/05/24 04:55:00;;;;;;;2.84;1.65;;;;;;;;;;362937;145;859258;-56
2021/05/24 04:56:02;;;;;;;2.29;1.64;;;;;;;;;;361586;146;864818;-58
2021/05/24 04:57:04;;;;;;;7.86;2.20;;;;;;;;;;361353;144;864984;-57
2021/05/24 04:58:06;;;;;;;8.68;2.47;;;;;;;;;;364050;146;860946;-59
2021/05/24 04:59:08;;;;;;;3.20;2.15;;;;;;;;;;361745;146;857418;-61
2021/05/24 05:00:14;;;;;;;4.42;2.37;;;;;;;;;;361695;144;857299;-59
2021/05/24 05:01:15;;;;;;;8.95;2.29;;;;;;;;;;361770;146;857952;-58
2021/05/24 05:02:17;;;;;;;4.51;2.63;;;;;;;;;;363656;145;857783;-59
2021/05/24 05:03:18;;;;;;;3.98;2.16;;;;;;;;;;361339;145;860160;-59
2021/05/24 05:04:20;;;;;;;6.68;2.18;;;;;;;;;;361298;146;858334;-60
2021/05/24 05:05:22;;;;;;;2.75;2.00;;;;;;;;;;361263;144;857380;-59
2021/05/24 05:06:23;;;;;;;6.91;2.36;;;;;;;;;;362092;145;857390;-59
2021/05/24 05:07:27;;;;;;;3.04;2.14;;;;;;;;;;361219;149;864911;-58
2021/05/24 05:08:28;;;;;;;4.30;2.39;;;;;;;;;;361236;145;857218;-58
2021/05/24 05:09:30;;;;;;;3.81;2.16;;;;;;;;;;361624;148;858794;-58
2021/05/24 05:10:34;;;;;;;2.50;1.90;;;;;;;;;;361355;148;857257;-57
2021/05/24 05:11:35;;;;;;;4.44;2.31;;;;;;;;;;363106;144;866371;-58
2021/05/24 05:12:37;;;;;;;6.01;2.29;;;;;;;;;;361477;145;864920;-57
2021/05/24 05:13:39;;;;;;;4.77;2.18;;;;;;;;;;362529;145;857305;-58
2021/05/24 05:14:41;;;;;;;4.10;2.13;;;;;;;;;;362460;145;857401;-58
2021/05/24 05:15:43;;;;;;;5.14;2.26;;;;;;;;;;361464;149;864750;-58
2021/05/24 05:16:45;;;;;;;3.15;2.13;;;;;;;;;;361781;145;865767;-58
2021/05/24 05:17:46;;;;;;;4.46;2.07;;;;;;;;;;361385;145;859901;-58
2021/05/24 05:18:48;;;;;;;3.54;2.16;;;;;;;;;;361771;146;857401;-59
2021/05/24 05:19:50;;;;;;;4.55;2.36;;;;;;;;;;362628;144;857387;-57
2021/05/24 05:20:51;;;;;;;5.37;2.89;;;;;;;;;;361533;146;856602;-58
2021/05/24 05:21:53;;;;;;;5.79;2.14;;;;;;;;;;360706;146;857456;-58
2021/05/24 05:22:55;;;;;;;5.31;2.36;;;;;;;;;;361504;145;859048;-58
2021/05/24 05:23:56;;;;;;;4.73;2.27;;;;;;;;;;362553;145;859156;-59
2021/05/24 05:24:58;;;;;;;3.08;2.23;;;;;;;;;;361694;149;857173;-59
2021/05/24 05:26:00;;;;;;;4.59;2.42;;;;;;;;;;363606;144;857734;-59
2021/05/24 05:27:01;;;;;;;3.73;2.20;;;;;;;;;;361654;146;858913;-59
2021/05/24 05:28:03;;;;;;;5.95;2.21;;;;;;;;;;361592;148;866463;-60
2021/05/24 05:29:04;;;;;;;5.16;2.31;;;;;;;;;;363047;145;859133;-59
2021/05/24 05:30:07;;;;;;;3.70;2.15;;;;;;;;;;362840;148;864765;-59
2021/05/24 05:31:08;;;;;;;4.46;2.39;;;;;;;;;;367761;146;857703;-59
2021/05/24 05:32:10;;;;;;;4.93;2.31;;;;;;;;;;362128;145;858597;-59
2021/05/24 05:33:12;;;;;;;6.86;2.47;;;;;;;;;;361665;148;860270;-58
2021/05/24 05:34:13;;;;;;;4.49;2.33;;;;;;;;;;362263;144;859657;-57
2021/05/24 05:35:16;;;;;;;6.91;2.45;;;;;;;;;;365435;145;858843;-59
2021/05/24 05:36:20;;;;;;;4.04;2.18;;;;;;;;;;361342;146;857441;-58
2021/05/24 05:37:22;;;;;;;3.03;2.25;;;;;;;;;;362233;144;857643;-59
2021/05/24 05:38:24;;;;;;;5.73;2.49;;;;;;;;;;361588;145;859499;-58
2021/05/24 05:39:26;;;;;;;4.95;2.31;;;;;;;;;;362649;146;857187;-58
2021/05/24 05:40:30;;;;;;;3.33;2.33;;;;;;;;;;362467;145;857277;-58
2021/05/24 05:41:31;;;;;;;3.76;2.44;;;;;;;;;;363734;146;857285;-58
2021/05/24 05:42:33;;;;;;;4.36;2.61;;;;;;;;;;361677;146;860156;-60
2021/05/24 05:43:34;;;;;;;4.69;2.40;;;;;;;;;;363026;145;857731;-58
2021/05/24 05:44:36;;;;;;;3.26;2.37;;;;;;;;;;362811;146;857648;-57
2021/05/24 05:45:38;;;;;;;5.09;2.52;;;;;;;;;;362852;145;857792;-57
2021/05/24 05:46:40;;;;;;;3.93;2.31;;;;;;;;;;361583;145;858700;-56
2021/05/24 05:47:42;;;;;;;4.14;2.41;;;;;;;;;;361669;148;857358;-59
2021/05/24 05:48:44;;;;;;;3.68;2.21;;;;;;;;;;361638;144;859089;-59
2021/05/24 05:49:48;;;;;;;4.62;2.46;;;;;;;;;;362533;145;859119;-59
2021/05/24 05:50:50;;;;;;;4.18;2.67;;;;;;;;;;361378;146;857848;-59
2021/05/24 05:51:52;;;;;;;4.30;2.56;;;;;;;;;;361388;145;858666;-59
2021/05/24 05:52:54;;;;;;;5.23;2.46;;;;;;;;;;361723;145;861947;-58
2021/05/24 05:53:56;;;;;;;7.28;2.46;;;;;;;;;;362268;146;857154;-58
2021/05/24 05:54:58;;;;;;;3.09;2.51;;;;;;;;;;361852;145;866788;-58
2021/05/24 05:56:00;;;;;;;7.31;2.43;;;;;;;;;;361599;149;857382;-57